Nearby METAR Reports

 

KDPA - Chicago/Dupage, Illinois, USA
Distance from station: ESE 9mi, 15km
Updated: Sun, 21-Jul-2019 9:52pm CDT
Clear
Clear
 Wind from N
Wind: N 7 mph , 11 km/h
Temperature: 70°F , 21°C
Dew Point: 59°F , 15°C
Humidity: 69%
Barometer: 29.97 inHg , 1014.9 hPa
Clouds: Clear
Visibility: 10 miles , 16 km
2019/07/22 02:52 KDPA 220252Z AUTO 01006KT 10SM CLR 21/15 A2997 RMK AO2 SLP143 T02110150 58002
KARR - Chicago/Aurora, Illinois, USA
Distance from station: SSW 14mi, 22km
Updated: Sun, 21-Jul-2019 9:52pm CDT
Clear
Clear
 Wind from NW
Wind: NW 3 mph , 6 km/h
Temperature: 66°F , 19°C
Dew Point: 61°F , 16°C
Humidity: 83%
Barometer: 29.98 inHg , 1015.2 hPa
Clouds: Clear
Visibility: 10 miles , 16 km
2019/07/22 02:52 KARR 220252Z AUTO 32003KT 10SM CLR 19/16 A2998 RMK AO2 SLP148 T01940156 58001 TSNO
 
KDKB - De Kalb, Illinois, USA
Distance from station: W 14mi, 23km
Updated: Sun, 21-Jul-2019 10:15pm CDT
Clear
Clear
 Wind from NNW
Wind: NNW 5 mph , 7 km/h
Temperature: 70°F , 21°C
Dew Point: 57°F , 14°C
Humidity: 64%
Barometer: 30.01 inHg , 1016.3 hPa
Clouds: Clear
Visibility: 10 miles , 16 km
2019/07/22 03:15 KDKB 220315Z AUTO 34004KT 10SM CLR 21/14 A3001 RMK AO2 T02050137
KORD - Chicago O'hare, Illinois, USA
Distance from station: E 25mi, 41km
Updated: Sun, 21-Jul-2019 9:51pm CDT
Mostly cloudy
Mostly cloudy
 Wind from NNE
Wind: NNE 12 mph , 19 km/h
Temperature: 72°F , 22°C
Dew Point: 55°F , 13°C
Humidity: 57%
Barometer: 29.96 inHg , 1014.6 hPa
Clouds: Mostly cloudy
Visibility: 10 miles , 16 km
Cloud details: Mostly cloudy 19000 ft
Mostly cloudy 25000 ft
2019/07/22 02:51 KORD 220251Z 02010KT 10SM BKN190 BKN250 22/13 A2996 RMK AO2 SLP142 T02170133 58002
 
KPWK - Palwaukee, Illinois, USA
Distance from station: ENE 29mi, 47km
Updated: Sun, 21-Jul-2019 9:52pm CDT
Clear
Clear
 Wind from NNE
Wind: NNE 8 mph , 13 km/h
Temperature: 72°F , 22°C
Dew Point: 55°F , 13°C
Humidity: 57%
Barometer: 29.98 inHg , 1015.2 hPa
Clouds: Clear
Visibility: 10 miles , 16 km
2019/07/22 02:52 KPWK 220252Z 02007KT 10SM CLR 22/13 A2998 RMK AO2 SLP150 T02220133 50001
KLOT - Romeoville/Chi, Illinois, USA
Distance from station: SE 30mi, 48km
Updated: Sun, 21-Jul-2019 10:10pm CDT
Clear
Clear
 Wind from calm
Wind: Calm
Temperature: 70°F , 21°C
Dew Point: 55°F , 13°C
Humidity: 60%
Barometer: 29.98 inHg , 1015.2 hPa
Clouds: Clear
Visibility: 10 miles , 16 km
2019/07/22 03:10 KLOT 220310Z AUTO 00000KT 10SM CLR 21/13 A2998 RMK AO2 T02110130
 
KJOT - Joliet, Illinois, USA
Distance from station: SSE 33mi, 53km
Updated: Sun, 21-Jul-2019 10:15pm CDT
Clear
Clear
 Wind from calm
Wind: Calm
Temperature: 72°F , 22°C
Dew Point: 57°F , 14°C
Humidity: 61%
Barometer: 29.97 inHg , 1014.9 hPa
Clouds: Clear
Visibility: 10 miles , 16 km
2019/07/22 03:15 KJOT 220315Z AUTO 00000KT 10SM CLR 22/14 A2997 RMK AO2 T02180142
KRPJ - Rochelle/Koritz, Illinois, USA
Distance from station: W 34mi, 55km
Updated: Sun, 21-Jul-2019 10:15pm CDT
Clear
Clear
 Wind from NNW
Wind: NNW 5 mph , 7 km/h
Temperature: 68°F , 20°C
Dew Point: 61°F , 16°C
Humidity: 78%
Barometer: 30.01 inHg , 1016.3 hPa
Clouds: Clear
Visibility: 10 miles , 16 km
2019/07/22 03:15 KRPJ 220315Z AUTO 33004KT 10SM CLR 20/16 A3001 RMK AO2 T02020164
 
KC09 - Morris-Washburn, Illinois, USA
Distance from station: S 36mi, 59km
Updated: Sun, 21-Jul-2019 10:15pm CDT
Clear
Clear
 Wind from calm
Wind: Calm
Temperature: 68°F , 20°C
Dew Point: 59°F , 15°C
Humidity: 73%
Barometer: 29.97 inHg , 1014.9 hPa
Clouds: Clear
Visibility: 10 miles , 16 km
2019/07/22 03:15 KC09 220315Z AUTO 00000KT 10SM CLR 20/15 A2997 RMK AO2 T02020151
KMDW - Chicago, Illinois, USA
Distance from station: ESE 37mi, 59km
Updated: Sun, 21-Jul-2019 9:53pm CDT
Mostly cloudy
Mostly cloudy
 Wind from NNE
Wind: NNE 12 mph , 19 km/h
Temperature: 73°F , 23°C
Dew Point: 57°F , 14°C
Humidity: 57%
Barometer: 29.96 inHg , 1014.6 hPa
Clouds: Mostly cloudy
Visibility: 10 miles , 16 km
Cloud details: Mostly cloudy 19000 ft
Mostly cloudy 25000 ft
2019/07/22 02:53 KMDW 220253Z 03010KT 10SM BKN190 BKN250 23/14 A2996 RMK AO2 SLP134 T02280144 58000
 
KRFD - Rockford, Illinois, USA
Distance from station: WNW 38mi, 62km
Updated: Sun, 21-Jul-2019 9:54pm CDT
Mostly cloudy
Mostly cloudy
 Wind from calm
Wind: Calm
Temperature: 72°F , 22°C
Dew Point: 61°F , 16°C
Humidity: 69%
Barometer: 30.00 inHg , 1015.9 hPa
Clouds: Mostly cloudy
Visibility: 10 miles , 16 km
Cloud details: Mostly cloudy 21000 ft
2019/07/22 02:54 KRFD 220254Z 00000KT 10SM BKN210 22/16 A3000 RMK AO2 SLP156 T02170156 50001
KUGN - Waukegan, Illinois, USA
Distance from station: NE 42mi, 68km
Updated: Sun, 21-Jul-2019 9:55pm CDT
Clear
Clear
 Wind from N
Wind: N 8 mph , 13 km/h
Temperature: 68°F , 20°C
Dew Point: 57°F , 14°C
Humidity: 69%
Barometer: 29.98 inHg , 1015.2 hPa
Clouds: Clear
Visibility: 10 miles , 16 km
2019/07/22 02:55 KUGN 220255Z AUTO 01007KT 10SM CLR 20/14 A2998 RMK AO2 SLP143 T02000139 50001
 
KBUU - Burlington, Wisconsin, USA
Distance from station: N 50mi, 81km
Updated: Sun, 21-Jul-2019 10:15pm CDT
Clear
Clear
 Wind from calm
Wind: Calm
Temperature: 64°F , 18°C
Dew Point: 59°F , 15°C
Humidity: 83%
Barometer: 30.01 inHg , 1016.3 hPa
Clouds: Clear
Visibility: 10 miles , 16 km
2019/07/22 03:15 KBUU 220315Z AUTO 00000KT 10SM CLR 18/15 A3001 RMK AO2 T01780150